Ag. Nikolaos — SX8964 — position and weather

sailwx.info

Track history (hours):
 
Tides and Currents Weather Stations Pressure Air Temp Water Temp Dewpoint Dewpoint Depression Visibility Wind Speed Wind Dir Waves Ship Positions

Ag. Nikolaos

Last reported at 2018-Feb-15 13:47 UTC. Time now 2018-Feb-17 20:15 UTC.
Position N 37°57' E 022°56'.

Length 19 m; draft 2.2 m.

Type: Fishing. MMSI: 239098000.

Date/timePositionNaut miles runAvg speedWind from/ knotsBaromVisibWave heightAir tempDewpointWater temp
2018-Feb-15 13:47N 37°57' E 022°56'0 1.8
2018-Feb-15 13:30N 37°57' E 022°56'0 0.1
2018-Feb-15 12:59N 37°57' E 022°56'0 0.1
2018-Feb-15 12:30N 37°57' E 022°56'0 0.2
2018-Feb-15 11:52N 37°57' E 022°56'0 1.0
2018-Feb-15 11:30N 37°57' E 022°56'4 8.0
2018-Feb-15 11:00N 37°55' E 023°01'4 9.0
2018-Feb-15 10:30N 37°55' E 023°06'5 9.4
2018-Feb-15 10:00N 37°57' E 023°12'5 9.2
2018-Feb-15 09:27N 37°58' E 023°18'3 6.4
2018-Feb-15 09:00N 37°58' E 023°22'1 1.7
2018-Feb-15 08:29N 37°58' E 023°23'3 5.5
2018-Feb-15 08:00N 37°59' E 023°26'5 9.1
2018-Feb-15 07:30N 38°00' E 023°31'3 6.7
2018-Feb-15 07:00N 37°58' E 023°34'  
Track history (hours):
 
Tides and Currents Weather Stations Pressure Air Temp Water Temp Dewpoint Dewpoint Depression Visibility Wind Speed Wind Dir Waves Ship Positions

Ag. Nikolaos

Last reported at 2018-Feb-15 13:47 UTC. Time now 2018-Feb-17 20:15 UTC.
Position N 37°57' E 022°56'.

Length 19 m; draft 2.2 m.

Type: Fishing. MMSI: 239098000.

Date/timePositionNaut miles runAvg speedWind from/ knotsBaromVisibWave heightAir tempDewpointWater temp
2018-Feb-15 13:47N 37°57' E 022°56'0 1.8
2018-Feb-15 13:30N 37°57' E 022°56'0 0.1
2018-Feb-15 12:59N 37°57' E 022°56'0 0.1
2018-Feb-15 12:30N 37°57' E 022°56'0 0.2
2018-Feb-15 11:52N 37°57' E 022°56'0 1.0
2018-Feb-15 11:30N 37°57' E 022°56'4 8.0
2018-Feb-15 11:00N 37°55' E 023°01'4 9.0
2018-Feb-15 10:30N 37°55' E 023°06'5 9.4
2018-Feb-15 10:00N 37°57' E 023°12'5 9.2
2018-Feb-15 09:27N 37°58' E 023°18'3 6.4
2018-Feb-15 09:00N 37°58' E 023°22'1 1.7
2018-Feb-15 08:29N 37°58' E 023°23'3 5.5
2018-Feb-15 08:00N 37°59' E 023°26'5 9.1
2018-Feb-15 07:30N 38°00' E 023°31'3 6.7
2018-Feb-15 07:00N 37°58' E 023°34'  

Dump ship's entire track history